Wichita Mid Continent Airport
KICT : now visible

Aeroporto :











RITROVATECI SU...

 
LOGIN :

Iscrizione | Disclaimer

   EN    FR    IT 

 









Sommario :    VFR   VFR Marginale   IFR   IFR Intensivo   IFR Molto Intensivo
Visibilità : 
Base nubi : 
>= 8 km
>= 3000ft
5 / 8 km
1000 / 3000 ft
1500m / 5 km
500 / 1000 ft
800 / 1500m
200 / 500 ft
< 800m
< 200 ft
Simboli :   Temporali  Nebbia  Neve Forte  Precipitazioni Forti  Vento > 20 kt






- Altitudine del aeroporto : 1333 ft
- Codice IATA : ICT


KICT - Wichita Mid Continent

ULTIMO METAR :
  • 280453Z 05005KT 10SM -RA BKN075 BKN110 19/17 A2990 RMK AO2 RAB0359 SLP114 P0000 T01940167

METARs OBSOLETI :
  • 280353Z 02004KT 10SM OVC075 21/16 A2990 RMK AO2 RAB25E41 SLP115 P0000 T02110156
  • 280253Z 02004KT 10SM BKN042 BKN060 OVC070 22/15 A2990 RMK AO2 SLP113 T02170150 51010

TAF KICT
Valido dal 28 a 06 ore il 29 a 06 ore UTC


280520Z 2806/2906 VRB04KT P6SM VCSH OVC070
FM281200 33006KT P6SM VCSH SCT025 OVC035
FM281600 35011KT P6SM VCSH BKN045
FM281700 36013KT P6SM BKN070
FM290000 02010KT P6SM SCT250
FIR KZKC / America del Nord



MetMap, La meteo Aeronautica in un colpo d'occhio ! - Copyright ORBIFLY Dicembre 2007 - Disclaimer

ORBIFLY MET'MAP TEAM :

Programmazione e sviluppo : Alexandra Zaïnal
Concezione : Baudouin d'Aumeries
Aiuto per la programmazione : Marc-Olivier Méhu
Supporto tecnico e logistico : Manuel Goepfert
Aiuto per la traduzione : Arnaldo La Scala

Contatto : metmap@orbifly.com




FONTI E CREDITI :

   NOAA       Earth
Advisory